sensor_id;sensor_type;location;lat;lon;timestamp;P1;durP1;ratioP1;P2;durP2;ratioP2
7707;SDS011;3896;48.758;8.888;2023-07-08T00:01:42;8.50;;;5.10;;
7707;SDS011;3896;48.758;8.888;2023-07-08T00:04:08;8.00;;;5.07;;
7707;SDS011;3896;48.758;8.888;2023-07-08T00:06:34;7.43;;;4.90;;
7707;SDS011;3896;48.758;8.888;2023-07-08T00:09:00;7.30;;;5.20;;
7707;SDS011;3896;48.758;8.888;2023-07-08T00:11:26;8.23;;;4.77;;
7707;SDS011;3896;48.758;8.888;2023-07-08T00:13:53;5.73;;;4.37;;
7707;SDS011;3896;48.758;8.888;2023-07-08T00:16:19;9.57;;;5.13;;
7707;SDS011;3896;48.758;8.888;2023-07-08T00:18:45;8.77;;;5.53;;
7707;SDS011;3896;48.758;8.888;2023-07-08T00:21:12;7.43;;;5.10;;
7707;SDS011;3896;48.758;8.888;2023-07-08T00:23:48;8.03;;;4.83;;
7707;SDS011;3896;48.758;8.888;2023-07-08T00:26:22;5.90;;;4.77;;
7707;SDS011;3896;48.758;8.888;2023-07-08T00:28:50;9.20;;;4.70;;
7707;SDS011;3896;48.758;8.888;2023-07-08T00:31:15;5.90;;;4.57;;
7707;SDS011;3896;48.758;8.888;2023-07-08T00:33:41;8.33;;;4.97;;
7707;SDS011;3896;48.758;8.888;2023-07-08T00:36:14;7.40;;;5.13;;
7707;SDS011;3896;48.758;8.888;2023-07-08T00:38:42;8.07;;;4.87;;
7707;SDS011;3896;48.758;8.888;2023-07-08T00:44:03;8.63;;;5.03;;
7707;SDS011;3896;48.758;8.888;2023-07-08T00:51:32;9.30;;;5.13;;
7707;SDS011;3896;48.758;8.888;2023-07-08T00:54:05;6.33;;;4.87;;
7707;SDS011;3896;48.758;8.888;2023-07-08T00:56:45;8.47;;;4.80;;
7707;SDS011;3896;48.758;8.888;2023-07-08T01:02:01;5.07;;;4.30;;
7707;SDS011;3896;48.758;8.888;2023-07-08T01:04:37;8.47;;;5.10;;
7707;SDS011;3896;48.758;8.888;2023-07-08T01:07:12;6.20;;;4.40;;
7707;SDS011;3896;48.758;8.888;2023-07-08T01:09:47;7.37;;;4.83;;
7707;SDS011;3896;48.758;8.888;2023-07-08T01:12:19;7.83;;;4.40;;
7707;SDS011;3896;48.758;8.888;2023-07-08T01:14:48;6.03;;;4.43;;
7707;SDS011;3896;48.758;8.888;2023-07-08T01:17:18;6.90;;;4.70;;
7707;SDS011;3896;48.758;8.888;2023-07-08T01:19:43;7.90;;;4.60;;
7707;SDS011;3896;48.758;8.888;2023-07-08T01:22:10;8.33;;;5.20;;
7707;SDS011;3896;48.758;8.888;2023-07-08T01:24:37;8.83;;;5.33;;
7707;SDS011;3896;48.758;8.888;2023-07-08T01:27:06;7.40;;;5.10;;
7707;SDS011;3896;48.758;8.888;2023-07-08T01:29:35;11.87;;;4.70;;
7707;SDS011;3896;48.758;8.888;2023-07-08T01:32:00;6.37;;;4.37;;
7707;SDS011;3896;48.758;8.888;2023-07-08T01:34:31;8.60;;;5.33;;
7707;SDS011;3896;48.758;8.888;2023-07-08T01:36:59;6.73;;;4.57;;
7707;SDS011;3896;48.758;8.888;2023-07-08T01:39:27;7.10;;;4.60;;
7707;SDS011;3896;48.758;8.888;2023-07-08T01:41:55;6.87;;;4.97;;
7707;SDS011;3896;48.758;8.888;2023-07-08T01:44:32;6.93;;;5.07;;
7707;SDS011;3896;48.758;8.888;2023-07-08T01:47:05;6.80;;;4.57;;
7707;SDS011;3896;48.758;8.888;2023-07-08T01:49:38;6.80;;;4.77;;
7707;SDS011;3896;48.758;8.888;2023-07-08T01:52:05;6.60;;;4.73;;
7707;SDS011;3896;48.758;8.888;2023-07-08T01:54:32;8.53;;;4.33;;
7707;SDS011;3896;48.758;8.888;2023-07-08T01:56:58;7.50;;;4.87;;
7707;SDS011;3896;48.758;8.888;2023-07-08T01:59:23;9.50;;;4.57;;
7707;SDS011;3896;48.758;8.888;2023-07-08T02:01:50;9.00;;;5.23;;
7707;SDS011;3896;48.758;8.888;2023-07-08T02:04:19;7.23;;;5.67;;
7707;SDS011;3896;48.758;8.888;2023-07-08T02:06:56;9.87;;;5.13;;
7707;SDS011;3896;48.758;8.888;2023-07-08T02:09:23;7.20;;;4.70;;
7707;SDS011;3896;48.758;8.888;2023-07-08T02:11:53;5.73;;;4.30;;
7707;SDS011;3896;48.758;8.888;2023-07-08T02:14:19;8.20;;;5.00;;
7707;SDS011;3896;48.758;8.888;2023-07-08T02:16:44;11.03;;;5.20;;
7707;SDS011;3896;48.758;8.888;2023-07-08T02:19:10;7.77;;;4.70;;
7707;SDS011;3896;48.758;8.888;2023-07-08T02:21:36;5.77;;;4.60;;
7707;SDS011;3896;48.758;8.888;2023-07-08T02:24:02;7.57;;;4.50;;
7707;SDS011;3896;48.758;8.888;2023-07-08T02:26:28;8.70;;;5.13;;
7707;SDS011;3896;48.758;8.888;2023-07-08T02:28:57;6.73;;;4.50;;
7707;SDS011;3896;48.758;8.888;2023-07-08T02:31:23;8.50;;;5.10;;
7707;SDS011;3896;48.758;8.888;2023-07-08T02:33:49;8.30;;;4.37;;
7707;SDS011;3896;48.758;8.888;2023-07-08T02:36:15;7.53;;;4.70;;
7707;SDS011;3896;48.758;8.888;2023-07-08T02:38:41;8.23;;;4.60;;
7707;SDS011;3896;48.758;8.888;2023-07-08T02:41:07;6.80;;;4.50;;
7707;SDS011;3896;48.758;8.888;2023-07-08T02:43:32;6.27;;;4.60;;
7707;SDS011;3896;48.758;8.888;2023-07-08T02:45:58;6.20;;;4.97;;
7707;SDS011;3896;48.758;8.888;2023-07-08T02:48:23;7.33;;;4.57;;
7707;SDS011;3896;48.758;8.888;2023-07-08T02:50:49;7.70;;;4.70;;
7707;SDS011;3896;48.758;8.888;2023-07-08T02:53:14;6.90;;;4.53;;
7707;SDS011;3896;48.758;8.888;2023-07-08T02:55:40;8.23;;;4.83;;
7707;SDS011;3896;48.758;8.888;2023-07-08T02:58:07;6.30;;;4.60;;
7707;SDS011;3896;48.758;8.888;2023-07-08T03:00:34;5.83;;;4.40;;
7707;SDS011;3896;48.758;8.888;2023-07-08T03:03:02;6.40;;;4.77;;
7707;SDS011;3896;48.758;8.888;2023-07-08T03:05:28;6.73;;;4.73;;
7707;SDS011;3896;48.758;8.888;2023-07-08T03:07:54;7.80;;;4.40;;
7707;SDS011;3896;48.758;8.888;2023-07-08T03:10:19;7.50;;;4.77;;
7707;SDS011;3896;48.758;8.888;2023-07-08T03:12:45;5.60;;;4.40;;
7707;SDS011;3896;48.758;8.888;2023-07-08T03:15:10;9.37;;;5.30;;
7707;SDS011;3896;48.758;8.888;2023-07-08T03:17:36;8.87;;;4.97;;
7707;SDS011;3896;48.758;8.888;2023-07-08T03:20:01;7.30;;;5.27;;
7707;SDS011;3896;48.758;8.888;2023-07-08T03:22:31;7.13;;;4.93;;
7707;SDS011;3896;48.758;8.888;2023-07-08T03:24:56;8.83;;;5.10;;
7707;SDS011;3896;48.758;8.888;2023-07-08T03:27:22;6.03;;;4.40;;
7707;SDS011;3896;48.758;8.888;2023-07-08T03:29:47;6.43;;;4.50;;
7707;SDS011;3896;48.758;8.888;2023-07-08T03:32:13;8.73;;;5.27;;
7707;SDS011;3896;48.758;8.888;2023-07-08T03:34:38;6.23;;;4.80;;
7707;SDS011;3896;48.758;8.888;2023-07-08T03:37:04;6.23;;;4.33;;
7707;SDS011;3896;48.758;8.888;2023-07-08T03:39:30;8.63;;;4.90;;
7707;SDS011;3896;48.758;8.888;2023-07-08T03:41:59;7.90;;;4.97;;
7707;SDS011;3896;48.758;8.888;2023-07-08T03:44:25;8.13;;;4.40;;
7707;SDS011;3896;48.758;8.888;2023-07-08T03:46:50;7.53;;;4.53;;
7707;SDS011;3896;48.758;8.888;2023-07-08T03:49:16;6.63;;;4.37;;
7707;SDS011;3896;48.758;8.888;2023-07-08T03:51:47;7.07;;;4.97;;
7707;SDS011;3896;48.758;8.888;2023-07-08T03:54:13;7.13;;;5.07;;
7707;SDS011;3896;48.758;8.888;2023-07-08T03:56:39;6.23;;;4.50;;
7707;SDS011;3896;48.758;8.888;2023-07-08T03:59:05;6.70;;;5.03;;
7707;SDS011;3896;48.758;8.888;2023-07-08T04:01:30;8.97;;;5.20;;
7707;SDS011;3896;48.758;8.888;2023-07-08T04:03:57;6.03;;;4.73;;
7707;SDS011;3896;48.758;8.888;2023-07-08T04:06:24;7.53;;;4.83;;
7707;SDS011;3896;48.758;8.888;2023-07-08T04:08:50;7.07;;;4.93;;
7707;SDS011;3896;48.758;8.888;2023-07-08T04:11:18;6.47;;;4.37;;
7707;SDS011;3896;48.758;8.888;2023-07-08T04:13:45;7.17;;;4.90;;
7707;SDS011;3896;48.758;8.888;2023-07-08T04:16:24;7.33;;;4.60;;
7707;SDS011;3896;48.758;8.888;2023-07-08T04:18:53;7.93;;;4.33;;
7707;SDS011;3896;48.758;8.888;2023-07-08T04:21:19;5.10;;;3.90;;
7707;SDS011;3896;48.758;8.888;2023-07-08T04:23:45;6.00;;;4.40;;
7707;SDS011;3896;48.758;8.888;2023-07-08T04:26:11;5.67;;;4.23;;
7707;SDS011;3896;48.758;8.888;2023-07-08T04:28:37;6.27;;;4.33;;
7707;SDS011;3896;48.758;8.888;2023-07-08T04:31:02;6.60;;;4.50;;
7707;SDS011;3896;48.758;8.888;2023-07-08T04:33:28;8.87;;;5.00;;
7707;SDS011;3896;48.758;8.888;2023-07-08T04:35:54;7.30;;;4.80;;
7707;SDS011;3896;48.758;8.888;2023-07-08T04:38:21;8.53;;;4.30;;
7707;SDS011;3896;48.758;8.888;2023-07-08T04:40:48;5.90;;;4.13;;
7707;SDS011;3896;48.758;8.888;2023-07-08T04:43:15;7.20;;;4.70;;
7707;SDS011;3896;48.758;8.888;2023-07-08T04:45:42;9.57;;;4.43;;
7707;SDS011;3896;48.758;8.888;2023-07-08T04:48:11;6.83;;;5.03;;
7707;SDS011;3896;48.758;8.888;2023-07-08T04:50:42;6.70;;;4.60;;
7707;SDS011;3896;48.758;8.888;2023-07-08T04:53:09;11.13;;;4.93;;
7707;SDS011;3896;48.758;8.888;2023-07-08T04:55:36;6.93;;;4.73;;
7707;SDS011;3896;48.758;8.888;2023-07-08T04:58:05;7.87;;;4.80;;
7707;SDS011;3896;48.758;8.888;2023-07-08T05:00:30;10.30;;;5.10;;
7707;SDS011;3896;48.758;8.888;2023-07-08T05:02:56;7.03;;;5.30;;
7707;SDS011;3896;48.758;8.888;2023-07-08T05:05:21;7.33;;;5.07;;
7707;SDS011;3896;48.758;8.888;2023-07-08T05:07:47;7.90;;;4.80;;
7707;SDS011;3896;48.758;8.888;2023-07-08T05:10:14;7.00;;;4.97;;
7707;SDS011;3896;48.758;8.888;2023-07-08T05:12:40;6.57;;;4.67;;
7707;SDS011;3896;48.758;8.888;2023-07-08T05:15:06;7.23;;;4.53;;
7707;SDS011;3896;48.758;8.888;2023-07-08T05:17:32;8.83;;;5.40;;
7707;SDS011;3896;48.758;8.888;2023-07-08T05:19:57;8.10;;;4.70;;
7707;SDS011;3896;48.758;8.888;2023-07-08T05:22:25;6.97;;;5.00;;
7707;SDS011;3896;48.758;8.888;2023-07-08T05:24:52;7.23;;;4.87;;
7707;SDS011;3896;48.758;8.888;2023-07-08T05:27:20;7.03;;;5.07;;
7707;SDS011;3896;48.758;8.888;2023-07-08T05:29:48;7.60;;;5.03;;
7707;SDS011;3896;48.758;8.888;2023-07-08T05:32:14;5.73;;;4.43;;
7707;SDS011;3896;48.758;8.888;2023-07-08T05:34:40;7.60;;;4.40;;
7707;SDS011;3896;48.758;8.888;2023-07-08T05:37:05;7.50;;;4.60;;
7707;SDS011;3896;48.758;8.888;2023-07-08T05:39:31;6.77;;;4.77;;
7707;SDS011;3896;48.758;8.888;2023-07-08T05:41:57;8.80;;;5.00;;
7707;SDS011;3896;48.758;8.888;2023-07-08T05:44:22;10.10;;;4.63;;
7707;SDS011;3896;48.758;8.888;2023-07-08T05:46:49;8.77;;;4.37;;
7707;SDS011;3896;48.758;8.888;2023-07-08T05:49:15;6.17;;;4.23;;
7707;SDS011;3896;48.758;8.888;2023-07-08T05:51:42;7.97;;;4.80;;
7707;SDS011;3896;48.758;8.888;2023-07-08T05:54:08;7.43;;;4.93;;
7707;SDS011;3896;48.758;8.888;2023-07-08T05:56:34;8.33;;;4.90;;
7707;SDS011;3896;48.758;8.888;2023-07-08T05:59:00;7.17;;;4.93;;
7707;SDS011;3896;48.758;8.888;2023-07-08T06:01:25;8.53;;;4.70;;
7707;SDS011;3896;48.758;8.888;2023-07-08T06:03:51;6.90;;;4.70;;
7707;SDS011;3896;48.758;8.888;2023-07-08T06:06:17;6.90;;;4.37;;
7707;SDS011;3896;48.758;8.888;2023-07-08T06:08:43;6.87;;;4.30;;
7707;SDS011;3896;48.758;8.888;2023-07-08T06:11:08;7.27;;;4.60;;
7707;SDS011;3896;48.758;8.888;2023-07-08T06:13:34;8.13;;;4.63;;
7707;SDS011;3896;48.758;8.888;2023-07-08T06:15:59;6.17;;;4.23;;
7707;SDS011;3896;48.758;8.888;2023-07-08T06:18:25;6.10;;;3.90;;
7707;SDS011;3896;48.758;8.888;2023-07-08T06:20:51;7.80;;;4.20;;
7707;SDS011;3896;48.758;8.888;2023-07-08T06:23:20;7.03;;;4.20;;
7707;SDS011;3896;48.758;8.888;2023-07-08T06:25:46;6.63;;;4.17;;
7707;SDS011;3896;48.758;8.888;2023-07-08T06:28:12;5.73;;;3.57;;
7707;SDS011;3896;48.758;8.888;2023-07-08T06:30:38;4.93;;;4.00;;
7707;SDS011;3896;48.758;8.888;2023-07-08T06:33:03;6.63;;;4.20;;
7707;SDS011;3896;48.758;8.888;2023-07-08T06:35:29;5.57;;;3.60;;
7707;SDS011;3896;48.758;8.888;2023-07-08T06:37:54;6.80;;;4.40;;
7707;SDS011;3896;48.758;8.888;2023-07-08T06:40:20;6.17;;;3.63;;
7707;SDS011;3896;48.758;8.888;2023-07-08T06:42:46;4.80;;;3.30;;
7707;SDS011;3896;48.758;8.888;2023-07-08T06:45:12;5.17;;;3.13;;
7707;SDS011;3896;48.758;8.888;2023-07-08T06:47:37;5.33;;;3.13;;
7707;SDS011;3896;48.758;8.888;2023-07-08T06:50:03;4.43;;;3.07;;
7707;SDS011;3896;48.758;8.888;2023-07-08T06:52:29;4.07;;;2.83;;
7707;SDS011;3896;48.758;8.888;2023-07-08T06:55:00;4.90;;;2.70;;
7707;SDS011;3896;48.758;8.888;2023-07-08T06:57:27;4.37;;;2.80;;
7707;SDS011;3896;48.758;8.888;2023-07-08T06:59:53;4.13;;;2.90;;
7707;SDS011;3896;48.758;8.888;2023-07-08T07:02:18;4.53;;;3.30;;
7707;SDS011;3896;48.758;8.888;2023-07-08T07:04:45;4.33;;;2.60;;
7707;SDS011;3896;48.758;8.888;2023-07-08T07:07:10;3.60;;;2.77;;
7707;SDS011;3896;48.758;8.888;2023-07-08T07:09:36;5.00;;;2.60;;
7707;SDS011;3896;48.758;8.888;2023-07-08T07:12:02;3.97;;;2.47;;
7707;SDS011;3896;48.758;8.888;2023-07-08T07:14:30;4.03;;;2.53;;
7707;SDS011;3896;48.758;8.888;2023-07-08T07:16:55;3.90;;;2.40;;
7707;SDS011;3896;48.758;8.888;2023-07-08T07:19:21;4.93;;;3.07;;
7707;SDS011;3896;48.758;8.888;2023-07-08T07:24:19;3.93;;;2.90;;
7707;SDS011;3896;48.758;8.888;2023-07-08T07:26:45;3.03;;;2.73;;
7707;SDS011;3896;48.758;8.888;2023-07-08T07:29:10;3.73;;;2.20;;
7707;SDS011;3896;48.758;8.888;2023-07-08T07:31:36;4.17;;;2.70;;
7707;SDS011;3896;48.758;8.888;2023-07-08T07:34:04;3.53;;;3.07;;
7707;SDS011;3896;48.758;8.888;2023-07-08T07:36:30;5.17;;;2.80;;
7707;SDS011;3896;48.758;8.888;2023-07-08T07:38:55;4.57;;;2.87;;
7707;SDS011;3896;48.758;8.888;2023-07-08T07:41:21;3.03;;;2.50;;
7707;SDS011;3896;48.758;8.888;2023-07-08T07:43:47;2.60;;;2.23;;
7707;SDS011;3896;48.758;8.888;2023-07-08T07:46:12;4.30;;;2.20;;
7707;SDS011;3896;48.758;8.888;2023-07-08T07:48:38;3.07;;;2.33;;
7707;SDS011;3896;48.758;8.888;2023-07-08T07:51:05;3.77;;;2.70;;
7707;SDS011;3896;48.758;8.888;2023-07-08T07:53:32;3.60;;;2.73;;
7707;SDS011;3896;48.758;8.888;2023-07-08T07:56:01;2.10;;;1.90;;
7707;SDS011;3896;48.758;8.888;2023-07-08T07:58:28;5.50;;;2.63;;
7707;SDS011;3896;48.758;8.888;2023-07-08T08:00:54;3.67;;;2.47;;
7707;SDS011;3896;48.758;8.888;2023-07-08T08:03:20;3.43;;;2.23;;
7707;SDS011;3896;48.758;8.888;2023-07-08T08:05:46;2.33;;;2.10;;
7707;SDS011;3896;48.758;8.888;2023-07-08T08:08:12;3.60;;;2.37;;
7707;SDS011;3896;48.758;8.888;2023-07-08T08:10:37;2.63;;;2.20;;
7707;SDS011;3896;48.758;8.888;2023-07-08T08:13:03;3.10;;;2.03;;
7707;SDS011;3896;48.758;8.888;2023-07-08T08:15:29;4.93;;;2.07;;
7707;SDS011;3896;48.758;8.888;2023-07-08T08:17:55;2.50;;;1.90;;
7707;SDS011;3896;48.758;8.888;2023-07-08T08:20:21;2.23;;;2.07;;
7707;SDS011;3896;48.758;8.888;2023-07-08T08:22:48;3.77;;;2.63;;
7707;SDS011;3896;48.758;8.888;2023-07-08T08:25:15;2.57;;;1.73;;
7707;SDS011;3896;48.758;8.888;2023-07-08T08:27:43;2.53;;;1.57;;
7707;SDS011;3896;48.758;8.888;2023-07-08T08:30:09;4.33;;;1.93;;
7707;SDS011;3896;48.758;8.888;2023-07-08T08:32:36;2.50;;;2.30;;
7707;SDS011;3896;48.758;8.888;2023-07-08T08:35:01;3.07;;;2.20;;
7707;SDS011;3896;48.758;8.888;2023-07-08T08:37:28;2.17;;;1.80;;
7707;SDS011;3896;48.758;8.888;2023-07-08T08:39:53;2.13;;;1.73;;
7707;SDS011;3896;48.758;8.888;2023-07-08T08:45:05;2.13;;;1.90;;
7707;SDS011;3896;48.758;8.888;2023-07-08T08:47:42;1.58;;;1.48;;
7707;SDS011;3896;48.758;8.888;2023-07-08T08:52:54;2.05;;;1.60;;
7707;SDS011;3896;48.758;8.888;2023-07-08T08:55:22;2.17;;;1.87;;
7707;SDS011;3896;48.758;8.888;2023-07-08T09:00:28;4.82;;;1.60;;
7707;SDS011;3896;48.758;8.888;2023-07-08T09:03:04;2.83;;;1.73;;
7707;SDS011;3896;48.758;8.888;2023-07-08T09:05:36;2.60;;;2.22;;
7707;SDS011;3896;48.758;8.888;2023-07-08T09:08:12;2.50;;;1.92;;
7707;SDS011;3896;48.758;8.888;2023-07-08T09:13:43;2.72;;;1.95;;
7707;SDS011;3896;48.758;8.888;2023-07-08T09:19:07;3.35;;;2.10;;
7707;SDS011;3896;48.758;8.888;2023-07-08T09:27:05;2.70;;;1.83;;
7707;SDS011;3896;48.758;8.888;2023-07-08T09:29:31;2.58;;;1.88;;
7707;SDS011;3896;48.758;8.888;2023-07-08T09:31:58;2.35;;;1.60;;
7707;SDS011;3896;48.758;8.888;2023-07-08T09:34:36;3.05;;;2.22;;
7707;SDS011;3896;48.758;8.888;2023-07-08T09:37:17;3.45;;;2.00;;
7707;SDS011;3896;48.758;8.888;2023-07-08T09:39:47;4.93;;;1.70;;
7707;SDS011;3896;48.758;8.888;2023-07-08T09:42:12;2.88;;;1.88;;
7707;SDS011;3896;48.758;8.888;2023-07-08T09:44:40;2.15;;;1.90;;
7707;SDS011;3896;48.758;8.888;2023-07-08T09:47:17;2.65;;;1.63;;
7707;SDS011;3896;48.758;8.888;2023-07-08T09:49:48;2.55;;;1.50;;
7707;SDS011;3896;48.758;8.888;2023-07-08T09:52:16;2.05;;;1.48;;
7707;SDS011;3896;48.758;8.888;2023-07-08T09:54:42;3.63;;;2.20;;
7707;SDS011;3896;48.758;8.888;2023-07-08T09:59:46;6.97;;;1.60;;
7707;SDS011;3896;48.758;8.888;2023-07-08T10:02:24;2.72;;;1.70;;
7707;SDS011;3896;48.758;8.888;2023-07-08T10:04:56;2.08;;;1.55;;
7707;SDS011;3896;48.758;8.888;2023-07-08T10:07:24;2.25;;;1.90;;
7707;SDS011;3896;48.758;8.888;2023-07-08T10:09:54;1.83;;;1.70;;
7707;SDS011;3896;48.758;8.888;2023-07-08T10:12:22;2.05;;;1.63;;
7707;SDS011;3896;48.758;8.888;2023-07-08T10:14:54;2.97;;;1.77;;
7707;SDS011;3896;48.758;8.888;2023-07-08T10:17:24;1.90;;;1.80;;
7707;SDS011;3896;48.758;8.888;2023-07-08T10:19:50;2.03;;;1.83;;
7707;SDS011;3896;48.758;8.888;2023-07-08T10:22:37;2.50;;;2.15;;
7707;SDS011;3896;48.758;8.888;2023-07-08T10:31:09;4.70;;;2.40;;
7707;SDS011;3896;48.758;8.888;2023-07-08T10:38:59;2.00;;;1.90;;
7707;SDS011;3896;48.758;8.888;2023-07-08T10:44:26;3.70;;;2.15;;
7707;SDS011;3896;48.758;8.888;2023-07-08T10:55:30;3.05;;;1.70;;
7707;SDS011;3896;48.758;8.888;2023-07-08T11:06:10;3.13;;;1.80;;
7707;SDS011;3896;48.758;8.888;2023-07-08T11:14:10;3.80;;;1.75;;
7707;SDS011;3896;48.758;8.888;2023-07-08T11:16:50;2.90;;;1.90;;
7707;SDS011;3896;48.758;8.888;2023-07-08T11:19:46;2.20;;;2.00;;
7707;SDS011;3896;48.758;8.888;2023-07-08T11:22:27;1.52;;;1.42;;
7707;SDS011;3896;48.758;8.888;2023-07-08T11:24:55;1.63;;;1.52;;
7707;SDS011;3896;48.758;8.888;2023-07-08T11:29:56;2.85;;;1.95;;
7707;SDS011;3896;48.758;8.888;2023-07-08T11:32:25;3.33;;;1.95;;
7707;SDS011;3896;48.758;8.888;2023-07-08T11:34:52;2.38;;;1.92;;
7707;SDS011;3896;48.758;8.888;2023-07-08T11:37:20;2.03;;;1.85;;
7707;SDS011;3896;48.758;8.888;2023-07-08T11:39:54;2.00;;;1.80;;
7707;SDS011;3896;48.758;8.888;2023-07-08T11:42:42;1.73;;;1.63;;
7707;SDS011;3896;48.758;8.888;2023-07-08T11:47:47;1.65;;;1.50;;
7707;SDS011;3896;48.758;8.888;2023-07-08T11:52:47;2.30;;;1.90;;
7707;SDS011;3896;48.758;8.888;2023-07-08T11:55:20;3.03;;;2.15;;
7707;SDS011;3896;48.758;8.888;2023-07-08T11:57:53;2.75;;;2.10;;
7707;SDS011;3896;48.758;8.888;2023-07-08T12:00:23;2.47;;;2.00;;
7707;SDS011;3896;48.758;8.888;2023-07-08T12:02:54;3.85;;;2.00;;
7707;SDS011;3896;48.758;8.888;2023-07-08T12:05:31;3.20;;;2.90;;
7707;SDS011;3896;48.758;8.888;2023-07-08T12:08:02;3.38;;;2.72;;
7707;SDS011;3896;48.758;8.888;2023-07-08T12:10:39;3.28;;;2.60;;
7707;SDS011;3896;48.758;8.888;2023-07-08T12:13:15;3.03;;;2.65;;
7707;SDS011;3896;48.758;8.888;2023-07-08T12:15:44;6.85;;;3.10;;
7707;SDS011;3896;48.758;8.888;2023-07-08T12:18:14;5.55;;;3.00;;
7707;SDS011;3896;48.758;8.888;2023-07-08T12:20:50;4.53;;;2.65;;
7707;SDS011;3896;48.758;8.888;2023-07-08T12:23:19;3.53;;;2.78;;
7707;SDS011;3896;48.758;8.888;2023-07-08T12:25:47;3.70;;;2.63;;
7707;SDS011;3896;48.758;8.888;2023-07-08T12:28:13;3.75;;;2.72;;
7707;SDS011;3896;48.758;8.888;2023-07-08T12:30:40;2.97;;;2.22;;
7707;SDS011;3896;48.758;8.888;2023-07-08T12:36:19;3.42;;;2.10;;
7707;SDS011;3896;48.758;8.888;2023-07-08T12:38:47;4.75;;;3.15;;
7707;SDS011;3896;48.758;8.888;2023-07-08T12:41:15;3.28;;;2.63;;
7707;SDS011;3896;48.758;8.888;2023-07-08T12:43:43;3.40;;;2.38;;
7707;SDS011;3896;48.758;8.888;2023-07-08T12:46:11;2.75;;;2.05;;
7707;SDS011;3896;48.758;8.888;2023-07-08T12:48:37;3.17;;;2.17;;
7707;SDS011;3896;48.758;8.888;2023-07-08T12:51:04;2.45;;;2.22;;
7707;SDS011;3896;48.758;8.888;2023-07-08T12:53:31;4.30;;;2.22;;
7707;SDS011;3896;48.758;8.888;2023-07-08T12:55:59;3.80;;;2.30;;
7707;SDS011;3896;48.758;8.888;2023-07-08T12:58:27;2.50;;;2.30;;
7707;SDS011;3896;48.758;8.888;2023-07-08T13:00:55;2.75;;;2.22;;
7707;SDS011;3896;48.758;8.888;2023-07-08T13:03:26;3.30;;;2.40;;
7707;SDS011;3896;48.758;8.888;2023-07-08T13:05:54;2.20;;;2.08;;
7707;SDS011;3896;48.758;8.888;2023-07-08T13:08:22;2.95;;;2.42;;
7707;SDS011;3896;48.758;8.888;2023-07-08T13:10:51;5.72;;;2.92;;
7707;SDS011;3896;48.758;8.888;2023-07-08T13:13:21;2.72;;;2.22;;
7707;SDS011;3896;48.758;8.888;2023-07-08T13:15:50;2.63;;;2.42;;
7707;SDS011;3896;48.758;8.888;2023-07-08T13:18:21;5.00;;;2.40;;
7707;SDS011;3896;48.758;8.888;2023-07-08T13:21:01;2.20;;;2.00;;
7707;SDS011;3896;48.758;8.888;2023-07-08T13:23:28;2.38;;;2.17;;
7707;SDS011;3896;48.758;8.888;2023-07-08T13:25:54;2.30;;;2.10;;
7707;SDS011;3896;48.758;8.888;2023-07-08T13:28:24;4.07;;;2.22;;
7707;SDS011;3896;48.758;8.888;2023-07-08T13:30:56;2.78;;;1.92;;
7707;SDS011;3896;48.758;8.888;2023-07-08T13:33:28;2.13;;;1.80;;
7707;SDS011;3896;48.758;8.888;2023-07-08T13:35:55;3.08;;;2.33;;
7707;SDS011;3896;48.758;8.888;2023-07-08T13:38:22;3.15;;;2.10;;
7707;SDS011;3896;48.758;8.888;2023-07-08T13:40:55;2.78;;;2.00;;
7707;SDS011;3896;48.758;8.888;2023-07-08T13:43:27;3.17;;;2.38;;
7707;SDS011;3896;48.758;8.888;2023-07-08T13:45:54;2.97;;;2.50;;
7707;SDS011;3896;48.758;8.888;2023-07-08T13:56:31;4.10;;;2.03;;
7707;SDS011;3896;48.758;8.888;2023-07-08T13:59:06;2.15;;;1.90;;
7707;SDS011;3896;48.758;8.888;2023-07-08T14:01:38;2.47;;;2.28;;
7707;SDS011;3896;48.758;8.888;2023-07-08T14:04:06;3.08;;;2.08;;
7707;SDS011;3896;48.758;8.888;2023-07-08T14:06:35;2.38;;;1.90;;
7707;SDS011;3896;48.758;8.888;2023-07-08T14:09:13;3.38;;;2.33;;
7707;SDS011;3896;48.758;8.888;2023-07-08T14:11:41;2.08;;;1.88;;
7707;SDS011;3896;48.758;8.888;2023-07-08T14:14:08;2.50;;;2.30;;
7707;SDS011;3896;48.758;8.888;2023-07-08T14:16:35;3.33;;;1.98;;
7707;SDS011;3896;48.758;8.888;2023-07-08T14:19:04;2.17;;;1.95;;
7707;SDS011;3896;48.758;8.888;2023-07-08T14:21:32;3.97;;;2.50;;
7707;SDS011;3896;48.758;8.888;2023-07-08T14:23:59;3.03;;;2.30;;
7707;SDS011;3896;48.758;8.888;2023-07-08T14:26:25;2.30;;;2.15;;
7707;SDS011;3896;48.758;8.888;2023-07-08T14:28:50;3.33;;;2.08;;
7707;SDS011;3896;48.758;8.888;2023-07-08T14:31:21;2.47;;;2.28;;
7707;SDS011;3896;48.758;8.888;2023-07-08T14:33:49;2.40;;;2.20;;
7707;SDS011;3896;48.758;8.888;2023-07-08T14:36:23;2.40;;;2.20;;
7707;SDS011;3896;48.758;8.888;2023-07-08T14:38:48;3.30;;;2.42;;
7707;SDS011;3896;48.758;8.888;2023-07-08T14:41:14;3.60;;;2.10;;
7707;SDS011;3896;48.758;8.888;2023-07-08T14:43:39;3.38;;;2.17;;
7707;SDS011;3896;48.758;8.888;2023-07-08T14:46:05;2.88;;;2.58;;
7707;SDS011;3896;48.758;8.888;2023-07-08T14:48:34;2.92;;;1.92;;
7707;SDS011;3896;48.758;8.888;2023-07-08T14:50:59;2.00;;;1.80;;
7707;SDS011;3896;48.758;8.888;2023-07-08T14:53:25;3.88;;;2.13;;
7707;SDS011;3896;48.758;8.888;2023-07-08T14:55:51;3.75;;;1.95;;
7707;SDS011;3896;48.758;8.888;2023-07-08T14:58:26;1.80;;;1.70;;
7707;SDS011;3896;48.758;8.888;2023-07-08T15:00:54;2.42;;;1.90;;
7707;SDS011;3896;48.758;8.888;2023-07-08T15:03:21;1.75;;;1.65;;
7707;SDS011;3896;48.758;8.888;2023-07-08T15:05:48;5.35;;;2.55;;
7707;SDS011;3896;48.758;8.888;2023-07-08T15:08:13;2.28;;;2.08;;
7707;SDS011;3896;48.758;8.888;2023-07-08T15:10:40;2.92;;;2.20;;
7707;SDS011;3896;48.758;8.888;2023-07-08T15:13:13;2.28;;;2.10;;
7707;SDS011;3896;48.758;8.888;2023-07-08T15:15:39;1.88;;;1.77;;
7707;SDS011;3896;48.758;8.888;2023-07-08T15:18:10;2.00;;;1.80;;
7707;SDS011;3896;48.758;8.888;2023-07-08T15:20:40;2.22;;;2.03;;
7707;SDS011;3896;48.758;8.888;2023-07-08T15:23:07;3.67;;;2.15;;
7707;SDS011;3896;48.758;8.888;2023-07-08T15:25:33;2.35;;;2.03;;
7707;SDS011;3896;48.758;8.888;2023-07-08T15:27:59;2.40;;;2.03;;
7707;SDS011;3896;48.758;8.888;2023-07-08T15:30:30;2.90;;;2.40;;
7707;SDS011;3896;48.758;8.888;2023-07-08T15:32:56;2.17;;;1.98;;
7707;SDS011;3896;48.758;8.888;2023-07-08T15:35:23;2.63;;;2.42;;
7707;SDS011;3896;48.758;8.888;2023-07-08T15:37:51;2.17;;;1.98;;
7707;SDS011;3896;48.758;8.888;2023-07-08T15:40:17;3.45;;;2.35;;
7707;SDS011;3896;48.758;8.888;2023-07-08T15:42:45;2.20;;;2.00;;
7707;SDS011;3896;48.758;8.888;2023-07-08T15:45:13;2.15;;;1.95;;
7707;SDS011;3896;48.758;8.888;2023-07-08T15:47:40;2.38;;;2.17;;
7707;SDS011;3896;48.758;8.888;2023-07-08T15:50:12;2.55;;;1.90;;
7707;SDS011;3896;48.758;8.888;2023-07-08T15:52:40;2.78;;;2.08;;
7707;SDS011;3896;48.758;8.888;2023-07-08T15:55:07;3.35;;;2.60;;
7707;SDS011;3896;48.758;8.888;2023-07-08T15:57:35;3.08;;;2.70;;
7707;SDS011;3896;48.758;8.888;2023-07-08T16:00:09;3.53;;;2.00;;
7707;SDS011;3896;48.758;8.888;2023-07-08T16:02:45;2.97;;;2.38;;
7707;SDS011;3896;48.758;8.888;2023-07-08T16:05:12;3.42;;;2.05;;
7707;SDS011;3896;48.758;8.888;2023-07-08T16:07:38;3.40;;;2.22;;
7707;SDS011;3896;48.758;8.888;2023-07-08T16:10:04;2.63;;;2.42;;
7707;SDS011;3896;48.758;8.888;2023-07-08T16:12:29;2.63;;;2.33;;
7707;SDS011;3896;48.758;8.888;2023-07-08T16:14:56;3.95;;;2.13;;
7707;SDS011;3896;48.758;8.888;2023-07-08T16:17:22;3.22;;;2.28;;
7707;SDS011;3896;48.758;8.888;2023-07-08T16:19:47;3.15;;;2.00;;
7707;SDS011;3896;48.758;8.888;2023-07-08T16:22:13;2.70;;;2.30;;
7707;SDS011;3896;48.758;8.888;2023-07-08T16:24:38;2.88;;;2.10;;
7707;SDS011;3896;48.758;8.888;2023-07-08T16:27:04;3.08;;;2.42;;
7707;SDS011;3896;48.758;8.888;2023-07-08T16:29:30;3.15;;;2.83;;
7707;SDS011;3896;48.758;8.888;2023-07-08T16:31:57;2.60;;;2.08;;
7707;SDS011;3896;48.758;8.888;2023-07-08T16:34:22;2.25;;;1.80;;
7707;SDS011;3896;48.758;8.888;2023-07-08T16:36:48;2.78;;;2.00;;
7707;SDS011;3896;48.758;8.888;2023-07-08T16:39:13;3.88;;;2.30;;
7707;SDS011;3896;48.758;8.888;2023-07-08T16:41:39;3.03;;;2.20;;
7707;SDS011;3896;48.758;8.888;2023-07-08T16:44:11;3.50;;;1.98;;
7707;SDS011;3896;48.758;8.888;2023-07-08T16:46:41;2.88;;;2.42;;
7707;SDS011;3896;48.758;8.888;2023-07-08T16:49:08;2.17;;;1.98;;
7707;SDS011;3896;48.758;8.888;2023-07-08T16:51:34;3.03;;;1.92;;